sensor_id;sensor_type;location;lat;lon;timestamp;temperature;humidity
16781;DHT22;8507;50.056;8.248;2023-04-03T00:01:24;4.90;99.90
16781;DHT22;8507;50.056;8.248;2023-04-03T00:03:56;4.90;99.90
16781;DHT22;8507;50.056;8.248;2023-04-03T00:06:22;4.90;99.90
16781;DHT22;8507;50.056;8.248;2023-04-03T00:08:49;4.90;99.90
16781;DHT22;8507;50.056;8.248;2023-04-03T00:11:14;4.90;99.90
16781;DHT22;8507;50.056;8.248;2023-04-03T00:13:40;4.90;99.90
16781;DHT22;8507;50.056;8.248;2023-04-03T00:16:07;4.90;99.90
16781;DHT22;8507;50.056;8.248;2023-04-03T00:18:33;4.90;99.90
16781;DHT22;8507;50.056;8.248;2023-04-03T00:20:59;4.90;99.90
16781;DHT22;8507;50.056;8.248;2023-04-03T00:23:25;4.90;99.90
16781;DHT22;8507;50.056;8.248;2023-04-03T00:25:51;4.90;99.90
16781;DHT22;8507;50.056;8.248;2023-04-03T00:28:17;4.90;99.90
16781;DHT22;8507;50.056;8.248;2023-04-03T00:30:42;4.90;99.90
16781;DHT22;8507;50.056;8.248;2023-04-03T00:33:11;5.00;99.90
16781;DHT22;8507;50.056;8.248;2023-04-03T00:35:37;4.90;99.90
16781;DHT22;8507;50.056;8.248;2023-04-03T00:38:03;4.90;99.90
16781;DHT22;8507;50.056;8.248;2023-04-03T00:40:34;4.90;99.90
16781;DHT22;8507;50.056;8.248;2023-04-03T00:43:00;5.00;99.90
16781;DHT22;8507;50.056;8.248;2023-04-03T00:45:28;5.00;99.90
16781;DHT22;8507;50.056;8.248;2023-04-03T00:47:54;5.00;99.90
16781;DHT22;8507;50.056;8.248;2023-04-03T00:50:20;5.00;99.90
16781;DHT22;8507;50.056;8.248;2023-04-03T00:52:46;5.00;99.90
16781;DHT22;8507;50.056;8.248;2023-04-03T00:55:14;5.00;99.90
16781;DHT22;8507;50.056;8.248;2023-04-03T00:57:40;5.10;99.90
16781;DHT22;8507;50.056;8.248;2023-04-03T01:00:11;5.10;99.90
16781;DHT22;8507;50.056;8.248;2023-04-03T01:02:38;5.10;99.90
16781;DHT22;8507;50.056;8.248;2023-04-03T01:05:06;5.20;99.90
16781;DHT22;8507;50.056;8.248;2023-04-03T01:07:32;5.30;99.90
16781;DHT22;8507;50.056;8.248;2023-04-03T01:10:04;5.20;99.90
16781;DHT22;8507;50.056;8.248;2023-04-03T01:12:41;5.20;99.90
16781;DHT22;8507;50.056;8.248;2023-04-03T01:15:18;5.20;99.90
16781;DHT22;8507;50.056;8.248;2023-04-03T01:17:52;5.20;99.90
16781;DHT22;8507;50.056;8.248;2023-04-03T01:25:32;5.30;99.90
16781;DHT22;8507;50.056;8.248;2023-04-03T01:27:58;5.30;99.90
16781;DHT22;8507;50.056;8.248;2023-04-03T01:30:28;5.30;99.90
16781;DHT22;8507;50.056;8.248;2023-04-03T01:32:56;5.20;99.90
16781;DHT22;8507;50.056;8.248;2023-04-03T01:35:21;5.30;99.90
16781;DHT22;8507;50.056;8.248;2023-04-03T01:37:47;5.30;99.90
16781;DHT22;8507;50.056;8.248;2023-04-03T01:40:12;5.30;99.90
16781;DHT22;8507;50.056;8.248;2023-04-03T01:42:38;5.30;99.90
16781;DHT22;8507;50.056;8.248;2023-04-03T01:45:04;5.20;99.90
16781;DHT22;8507;50.056;8.248;2023-04-03T01:47:30;5.20;99.90
16781;DHT22;8507;50.056;8.248;2023-04-03T01:49:55;5.30;99.90
16781;DHT22;8507;50.056;8.248;2023-04-03T01:52:21;5.30;99.90
16781;DHT22;8507;50.056;8.248;2023-04-03T01:54:46;5.30;99.90
16781;DHT22;8507;50.056;8.248;2023-04-03T01:57:12;5.30;99.90
16781;DHT22;8507;50.056;8.248;2023-04-03T01:59:38;5.30;99.90
16781;DHT22;8507;50.056;8.248;2023-04-03T02:02:04;5.40;99.90
16781;DHT22;8507;50.056;8.248;2023-04-03T02:04:30;5.40;99.90
16781;DHT22;8507;50.056;8.248;2023-04-03T02:06:55;5.40;99.90
16781;DHT22;8507;50.056;8.248;2023-04-03T02:09:21;5.30;99.90
16781;DHT22;8507;50.056;8.248;2023-04-03T02:11:46;5.30;99.90
16781;DHT22;8507;50.056;8.248;2023-04-03T02:14:12;5.30;99.90
16781;DHT22;8507;50.056;8.248;2023-04-03T02:16:38;5.30;99.90
16781;DHT22;8507;50.056;8.248;2023-04-03T02:19:03;5.20;99.90
16781;DHT22;8507;50.056;8.248;2023-04-03T02:21:29;5.20;99.90
16781;DHT22;8507;50.056;8.248;2023-04-03T02:23:54;5.20;99.90
16781;DHT22;8507;50.056;8.248;2023-04-03T02:26:20;5.20;99.90
16781;DHT22;8507;50.056;8.248;2023-04-03T02:28:46;5.20;99.90
16781;DHT22;8507;50.056;8.248;2023-04-03T02:31:12;5.20;99.90
16781;DHT22;8507;50.056;8.248;2023-04-03T02:33:38;5.10;99.90
16781;DHT22;8507;50.056;8.248;2023-04-03T02:36:04;5.10;99.90
16781;DHT22;8507;50.056;8.248;2023-04-03T02:38:31;5.10;99.90
16781;DHT22;8507;50.056;8.248;2023-04-03T02:41:04;5.10;99.90
16781;DHT22;8507;50.056;8.248;2023-04-03T02:43:30;5.10;99.90
16781;DHT22;8507;50.056;8.248;2023-04-03T02:45:56;5.10;99.90
16781;DHT22;8507;50.056;8.248;2023-04-03T02:48:22;5.10;99.90
16781;DHT22;8507;50.056;8.248;2023-04-03T02:50:48;5.10;99.90
16781;DHT22;8507;50.056;8.248;2023-04-03T02:53:14;5.10;99.90
16781;DHT22;8507;50.056;8.248;2023-04-03T02:55:40;5.10;99.90
16781;DHT22;8507;50.056;8.248;2023-04-03T02:58:06;5.10;99.90
16781;DHT22;8507;50.056;8.248;2023-04-03T03:00:32;5.10;99.90
16781;DHT22;8507;50.056;8.248;2023-04-03T03:02:57;5.10;99.90
16781;DHT22;8507;50.056;8.248;2023-04-03T03:05:23;5.10;99.90
16781;DHT22;8507;50.056;8.248;2023-04-03T03:07:48;5.10;99.90
16781;DHT22;8507;50.056;8.248;2023-04-03T03:10:14;5.00;99.90
16781;DHT22;8507;50.056;8.248;2023-04-03T03:12:40;5.10;99.90
16781;DHT22;8507;50.056;8.248;2023-04-03T03:15:06;5.10;99.90
16781;DHT22;8507;50.056;8.248;2023-04-03T03:17:32;5.10;99.90
16781;DHT22;8507;50.056;8.248;2023-04-03T03:19:58;5.10;99.90
16781;DHT22;8507;50.056;8.248;2023-04-03T03:22:24;5.00;99.90
16781;DHT22;8507;50.056;8.248;2023-04-03T03:24:49;5.00;99.90
16781;DHT22;8507;50.056;8.248;2023-04-03T03:27:15;5.00;99.90
16781;DHT22;8507;50.056;8.248;2023-04-03T03:29:41;5.00;99.90
16781;DHT22;8507;50.056;8.248;2023-04-03T03:32:07;4.90;99.90
16781;DHT22;8507;50.056;8.248;2023-04-03T03:34:33;4.80;99.90
16781;DHT22;8507;50.056;8.248;2023-04-03T03:36:58;4.90;99.90
16781;DHT22;8507;50.056;8.248;2023-04-03T03:39:24;4.80;99.90
16781;DHT22;8507;50.056;8.248;2023-04-03T03:41:50;4.80;99.90
16781;DHT22;8507;50.056;8.248;2023-04-03T03:44:15;4.80;99.90
16781;DHT22;8507;50.056;8.248;2023-04-03T03:46:41;4.70;99.90
16781;DHT22;8507;50.056;8.248;2023-04-03T03:49:06;4.70;99.90
16781;DHT22;8507;50.056;8.248;2023-04-03T03:51:32;4.70;99.90
16781;DHT22;8507;50.056;8.248;2023-04-03T03:53:57;4.60;99.90
16781;DHT22;8507;50.056;8.248;2023-04-03T03:56:23;4.60;99.90
16781;DHT22;8507;50.056;8.248;2023-04-03T03:58:49;4.60;99.90
16781;DHT22;8507;50.056;8.248;2023-04-03T04:01:15;4.50;99.90
16781;DHT22;8507;50.056;8.248;2023-04-03T04:03:42;4.40;99.90
16781;DHT22;8507;50.056;8.248;2023-04-03T04:06:07;4.40;99.90
16781;DHT22;8507;50.056;8.248;2023-04-03T04:08:33;4.30;99.90
16781;DHT22;8507;50.056;8.248;2023-04-03T04:10:58;4.30;99.90
16781;DHT22;8507;50.056;8.248;2023-04-03T04:13:24;4.30;99.90
16781;DHT22;8507;50.056;8.248;2023-04-03T04:15:50;4.30;99.90
16781;DHT22;8507;50.056;8.248;2023-04-03T04:18:15;4.30;99.90
16781;DHT22;8507;50.056;8.248;2023-04-03T04:20:41;4.20;99.90
16781;DHT22;8507;50.056;8.248;2023-04-03T04:23:08;4.20;99.90
16781;DHT22;8507;50.056;8.248;2023-04-03T04:25:34;4.10;99.90
16781;DHT22;8507;50.056;8.248;2023-04-03T04:27:59;4.10;99.90
16781;DHT22;8507;50.056;8.248;2023-04-03T04:30:25;4.10;99.90
16781;DHT22;8507;50.056;8.248;2023-04-03T04:32:51;4.00;99.90
16781;DHT22;8507;50.056;8.248;2023-04-03T04:35:17;4.00;99.90
16781;DHT22;8507;50.056;8.248;2023-04-03T04:37:42;3.90;99.90
16781;DHT22;8507;50.056;8.248;2023-04-03T04:40:08;3.80;99.90
16781;DHT22;8507;50.056;8.248;2023-04-03T04:42:34;3.80;99.90
16781;DHT22;8507;50.056;8.248;2023-04-03T04:44:59;3.70;99.90
16781;DHT22;8507;50.056;8.248;2023-04-03T04:47:25;3.60;99.90
16781;DHT22;8507;50.056;8.248;2023-04-03T04:49:50;3.60;99.90
16781;DHT22;8507;50.056;8.248;2023-04-03T04:52:16;3.50;99.90
16781;DHT22;8507;50.056;8.248;2023-04-03T04:54:42;3.50;99.90
16781;DHT22;8507;50.056;8.248;2023-04-03T04:57:07;3.40;99.90
16781;DHT22;8507;50.056;8.248;2023-04-03T04:59:33;3.40;99.90
16781;DHT22;8507;50.056;8.248;2023-04-03T05:02:01;3.30;99.90
16781;DHT22;8507;50.056;8.248;2023-04-03T05:04:27;3.30;99.90
16781;DHT22;8507;50.056;8.248;2023-04-03T05:06:52;3.30;99.90
16781;DHT22;8507;50.056;8.248;2023-04-03T05:09:18;3.20;99.90
16781;DHT22;8507;50.056;8.248;2023-04-03T05:11:45;3.20;99.90
16781;DHT22;8507;50.056;8.248;2023-04-03T05:14:11;3.20;99.90
16781;DHT22;8507;50.056;8.248;2023-04-03T05:16:37;3.20;99.90
16781;DHT22;8507;50.056;8.248;2023-04-03T05:19:03;3.10;99.90
16781;DHT22;8507;50.056;8.248;2023-04-03T05:21:28;3.10;99.90
16781;DHT22;8507;50.056;8.248;2023-04-03T05:23:58;3.10;99.90
16781;DHT22;8507;50.056;8.248;2023-04-03T05:26:24;3.10;99.90
16781;DHT22;8507;50.056;8.248;2023-04-03T05:28:50;3.10;99.90
16781;DHT22;8507;50.056;8.248;2023-04-03T05:31:16;3.10;99.90
16781;DHT22;8507;50.056;8.248;2023-04-03T05:33:42;3.10;99.90
16781;DHT22;8507;50.056;8.248;2023-04-03T05:36:07;3.20;99.90
16781;DHT22;8507;50.056;8.248;2023-04-03T05:38:33;3.20;99.90
16781;DHT22;8507;50.056;8.248;2023-04-03T05:40:59;3.20;99.90
16781;DHT22;8507;50.056;8.248;2023-04-03T05:43:25;3.30;99.90
16781;DHT22;8507;50.056;8.248;2023-04-03T05:45:51;3.30;99.90
16781;DHT22;8507;50.056;8.248;2023-04-03T05:48:17;3.30;99.90
16781;DHT22;8507;50.056;8.248;2023-04-03T05:50:42;3.30;99.90
16781;DHT22;8507;50.056;8.248;2023-04-03T05:53:21;3.30;99.90
16781;DHT22;8507;50.056;8.248;2023-04-03T05:55:47;3.40;99.90
16781;DHT22;8507;50.056;8.248;2023-04-03T05:58:13;3.40;99.90
16781;DHT22;8507;50.056;8.248;2023-04-03T06:00:39;3.50;99.90
16781;DHT22;8507;50.056;8.248;2023-04-03T06:03:05;3.60;99.90
16781;DHT22;8507;50.056;8.248;2023-04-03T06:05:31;3.60;99.90
16781;DHT22;8507;50.056;8.248;2023-04-03T06:07:57;3.60;99.90
16781;DHT22;8507;50.056;8.248;2023-04-03T06:10:23;3.70;99.90
16781;DHT22;8507;50.056;8.248;2023-04-03T06:12:50;3.80;99.90
16781;DHT22;8507;50.056;8.248;2023-04-03T06:15:16;3.80;99.90
16781;DHT22;8507;50.056;8.248;2023-04-03T06:17:42;3.90;99.90
16781;DHT22;8507;50.056;8.248;2023-04-03T06:20:08;4.10;99.90
16781;DHT22;8507;50.056;8.248;2023-04-03T06:22:35;4.30;99.90
16781;DHT22;8507;50.056;8.248;2023-04-03T06:25:00;4.50;99.90
16781;DHT22;8507;50.056;8.248;2023-04-03T06:27:26;4.60;99.90
16781;DHT22;8507;50.056;8.248;2023-04-03T06:29:52;4.60;99.90
16781;DHT22;8507;50.056;8.248;2023-04-03T06:32:18;4.90;99.90
16781;DHT22;8507;50.056;8.248;2023-04-03T06:34:43;5.10;99.90
16781;DHT22;8507;50.056;8.248;2023-04-03T06:37:28;5.40;99.90
16781;DHT22;8507;50.056;8.248;2023-04-03T06:39:57;5.30;99.90
16781;DHT22;8507;50.056;8.248;2023-04-03T06:42:23;5.50;99.90
16781;DHT22;8507;50.056;8.248;2023-04-03T06:44:49;5.60;99.90
16781;DHT22;8507;50.056;8.248;2023-04-03T06:47:16;5.50;99.90
16781;DHT22;8507;50.056;8.248;2023-04-03T06:49:42;5.30;99.90
16781;DHT22;8507;50.056;8.248;2023-04-03T06:52:08;5.40;99.90
16781;DHT22;8507;50.056;8.248;2023-04-03T06:54:34;5.50;99.90
16781;DHT22;8507;50.056;8.248;2023-04-03T06:57:00;5.30;99.90
16781;DHT22;8507;50.056;8.248;2023-04-03T06:59:26;5.20;99.90
16781;DHT22;8507;50.056;8.248;2023-04-03T07:01:52;5.10;99.90
16781;DHT22;8507;50.056;8.248;2023-04-03T07:04:18;5.10;99.90
16781;DHT22;8507;50.056;8.248;2023-04-03T07:06:45;5.10;99.90
16781;DHT22;8507;50.056;8.248;2023-04-03T07:09:12;5.10;99.90
16781;DHT22;8507;50.056;8.248;2023-04-03T07:11:38;5.00;99.90
16781;DHT22;8507;50.056;8.248;2023-04-03T07:14:04;5.00;99.90
16781;DHT22;8507;50.056;8.248;2023-04-03T07:16:29;5.10;99.90
16781;DHT22;8507;50.056;8.248;2023-04-03T07:18:57;5.20;99.90
16781;DHT22;8507;50.056;8.248;2023-04-03T07:21:23;5.30;99.90
16781;DHT22;8507;50.056;8.248;2023-04-03T07:23:49;5.60;99.90
16781;DHT22;8507;50.056;8.248;2023-04-03T07:26:15;5.50;99.90
16781;DHT22;8507;50.056;8.248;2023-04-03T07:28:40;5.50;99.90
16781;DHT22;8507;50.056;8.248;2023-04-03T07:31:10;5.70;99.90
16781;DHT22;8507;50.056;8.248;2023-04-03T07:33:39;5.80;99.90
16781;DHT22;8507;50.056;8.248;2023-04-03T07:36:05;5.70;99.90
16781;DHT22;8507;50.056;8.248;2023-04-03T07:38:33;5.50;99.90
16781;DHT22;8507;50.056;8.248;2023-04-03T07:40:58;5.90;99.90
16781;DHT22;8507;50.056;8.248;2023-04-03T07:43:24;5.70;99.90
16781;DHT22;8507;50.056;8.248;2023-04-03T07:45:50;5.90;99.90
16781;DHT22;8507;50.056;8.248;2023-04-03T07:48:18;6.10;99.90
16781;DHT22;8507;50.056;8.248;2023-04-03T07:50:44;5.80;99.90
16781;DHT22;8507;50.056;8.248;2023-04-03T07:53:09;5.80;99.90
16781;DHT22;8507;50.056;8.248;2023-04-03T07:55:35;5.90;99.90
16781;DHT22;8507;50.056;8.248;2023-04-03T07:58:08;6.00;99.90
16781;DHT22;8507;50.056;8.248;2023-04-03T08:00:35;5.80;99.90
16781;DHT22;8507;50.056;8.248;2023-04-03T08:03:00;5.80;99.90
16781;DHT22;8507;50.056;8.248;2023-04-03T08:05:26;6.10;99.90
16781;DHT22;8507;50.056;8.248;2023-04-03T08:07:52;6.30;99.90
16781;DHT22;8507;50.056;8.248;2023-04-03T08:10:18;6.50;99.90
16781;DHT22;8507;50.056;8.248;2023-04-03T08:12:46;6.20;99.90
16781;DHT22;8507;50.056;8.248;2023-04-03T08:15:12;6.20;99.90
16781;DHT22;8507;50.056;8.248;2023-04-03T08:17:37;6.20;99.90
16781;DHT22;8507;50.056;8.248;2023-04-03T08:20:04;6.40;99.90
16781;DHT22;8507;50.056;8.248;2023-04-03T08:22:32;6.40;99.90
16781;DHT22;8507;50.056;8.248;2023-04-03T08:24:57;6.30;99.90
16781;DHT22;8507;50.056;8.248;2023-04-03T08:27:23;6.30;99.90
16781;DHT22;8507;50.056;8.248;2023-04-03T08:29:48;6.60;99.90
16781;DHT22;8507;50.056;8.248;2023-04-03T08:32:14;6.50;99.90
16781;DHT22;8507;50.056;8.248;2023-04-03T08:34:39;6.70;99.90
16781;DHT22;8507;50.056;8.248;2023-04-03T08:37:05;6.70;99.90
16781;DHT22;8507;50.056;8.248;2023-04-03T08:39:31;6.80;99.90
16781;DHT22;8507;50.056;8.248;2023-04-03T08:41:59;6.30;99.90
16781;DHT22;8507;50.056;8.248;2023-04-03T08:50:00;7.10;99.90
16781;DHT22;8507;50.056;8.248;2023-04-03T08:52:51;7.60;99.90
16781;DHT22;8507;50.056;8.248;2023-04-03T08:55:27;7.40;99.90
16781;DHT22;8507;50.056;8.248;2023-04-03T08:58:04;6.80;99.90
16781;DHT22;8507;50.056;8.248;2023-04-03T09:03:13;6.50;99.90
16781;DHT22;8507;50.056;8.248;2023-04-03T09:05:48;6.80;99.90
16781;DHT22;8507;50.056;8.248;2023-04-03T09:08:48;7.10;99.90
16781;DHT22;8507;50.056;8.248;2023-04-03T09:11:17;7.30;99.90
16781;DHT22;8507;50.056;8.248;2023-04-03T09:17:03;6.60;99.90
16781;DHT22;8507;50.056;8.248;2023-04-03T09:21:57;7.20;99.90
16781;DHT22;8507;50.056;8.248;2023-04-03T09:24:24;7.10;99.90
16781;DHT22;8507;50.056;8.248;2023-04-03T09:27:07;6.80;99.90
16781;DHT22;8507;50.056;8.248;2023-04-03T09:29:41;7.20;99.90
16781;DHT22;8507;50.056;8.248;2023-04-03T09:32:32;7.50;99.90
16781;DHT22;8507;50.056;8.248;2023-04-03T09:35:26;7.50;99.90
16781;DHT22;8507;50.056;8.248;2023-04-03T09:37:52;7.00;99.90
16781;DHT22;8507;50.056;8.248;2023-04-03T09:40:34;6.80;99.90
16781;DHT22;8507;50.056;8.248;2023-04-03T09:43:25;7.20;99.90
16781;DHT22;8507;50.056;8.248;2023-04-03T09:45:52;7.00;99.90
16781;DHT22;8507;50.056;8.248;2023-04-03T09:48:21;7.30;99.90
16781;DHT22;8507;50.056;8.248;2023-04-03T09:58:48;7.80;99.90
16781;DHT22;8507;50.056;8.248;2023-04-03T10:01:31;7.70;99.90
16781;DHT22;8507;50.056;8.248;2023-04-03T10:04:14;7.60;99.90
16781;DHT22;8507;50.056;8.248;2023-04-03T10:06:44;7.30;99.90
16781;DHT22;8507;50.056;8.248;2023-04-03T10:09:28;7.40;99.90
16781;DHT22;8507;50.056;8.248;2023-04-03T10:12:03;7.40;99.90
16781;DHT22;8507;50.056;8.248;2023-04-03T10:14:32;7.70;99.90
16781;DHT22;8507;50.056;8.248;2023-04-03T10:19:57;7.60;99.90
16781;DHT22;8507;50.056;8.248;2023-04-03T10:26:02;7.00;99.90
16781;DHT22;8507;50.056;8.248;2023-04-03T10:34:06;6.80;99.90
16781;DHT22;8507;50.056;8.248;2023-04-03T10:36:57;6.70;99.90
16781;DHT22;8507;50.056;8.248;2023-04-03T10:42:18;7.20;99.90
16781;DHT22;8507;50.056;8.248;2023-04-03T10:47:32;7.60;99.90
16781;DHT22;8507;50.056;8.248;2023-04-03T10:57:58;7.90;99.90
16781;DHT22;8507;50.056;8.248;2023-04-03T11:02:58;8.40;99.90
16781;DHT22;8507;50.056;8.248;2023-04-03T11:05:36;8.30;99.90
16781;DHT22;8507;50.056;8.248;2023-04-03T11:08:19;8.30;99.90
16781;DHT22;8507;50.056;8.248;2023-04-03T11:10:50;8.60;99.90
16781;DHT22;8507;50.056;8.248;2023-04-03T11:15:49;8.10;99.90
16781;DHT22;8507;50.056;8.248;2023-04-03T11:18:26;8.30;99.90
16781;DHT22;8507;50.056;8.248;2023-04-03T11:21:09;7.90;99.90
16781;DHT22;8507;50.056;8.248;2023-04-03T11:23:39;7.90;99.90
16781;DHT22;8507;50.056;8.248;2023-04-03T11:26:14;8.10;99.90
16781;DHT22;8507;50.056;8.248;2023-04-03T11:28:41;7.90;99.90
16781;DHT22;8507;50.056;8.248;2023-04-03T11:31:23;8.00;99.90
16781;DHT22;8507;50.056;8.248;2023-04-03T11:36:39;8.10;99.90
16781;DHT22;8507;50.056;8.248;2023-04-03T11:39:25;8.20;99.90
16781;DHT22;8507;50.056;8.248;2023-04-03T11:41:52;8.20;99.90
16781;DHT22;8507;50.056;8.248;2023-04-03T11:44:35;8.10;99.90
16781;DHT22;8507;50.056;8.248;2023-04-03T11:47:08;8.10;99.90
16781;DHT22;8507;50.056;8.248;2023-04-03T11:49:57;7.70;99.90
16781;DHT22;8507;50.056;8.248;2023-04-03T12:16:03;9.00;99.90
16781;DHT22;8507;50.056;8.248;2023-04-03T12:35:14;8.60;99.90
16781;DHT22;8507;50.056;8.248;2023-04-03T12:51:22;8.10;99.90
16781;DHT22;8507;50.056;8.248;2023-04-03T12:53:58;8.50;99.90
16781;DHT22;8507;50.056;8.248;2023-04-03T12:56:28;8.90;99.90
16781;DHT22;8507;50.056;8.248;2023-04-03T12:59:12;8.60;99.90
16781;DHT22;8507;50.056;8.248;2023-04-03T13:01:38;8.50;99.90
16781;DHT22;8507;50.056;8.248;2023-04-03T13:04:03;8.70;99.90
16781;DHT22;8507;50.056;8.248;2023-04-03T13:06:41;8.20;99.90
16781;DHT22;8507;50.056;8.248;2023-04-03T13:09:29;8.10;99.90
16781;DHT22;8507;50.056;8.248;2023-04-03T13:12:00;8.10;99.90
16781;DHT22;8507;50.056;8.248;2023-04-03T13:14:27;8.10;99.90
16781;DHT22;8507;50.056;8.248;2023-04-03T13:16:58;8.40;99.90
16781;DHT22;8507;50.056;8.248;2023-04-03T13:19:26;8.60;99.90
16781;DHT22;8507;50.056;8.248;2023-04-03T13:22:08;8.50;99.90
16781;DHT22;8507;50.056;8.248;2023-04-03T13:24:37;8.40;99.90
16781;DHT22;8507;50.056;8.248;2023-04-03T13:27:03;8.40;99.90
16781;DHT22;8507;50.056;8.248;2023-04-03T13:29:35;8.60;99.90
16781;DHT22;8507;50.056;8.248;2023-04-03T13:32:03;8.40;99.90
16781;DHT22;8507;50.056;8.248;2023-04-03T13:34:37;8.60;99.90
16781;DHT22;8507;50.056;8.248;2023-04-03T13:37:04;8.80;99.90
16781;DHT22;8507;50.056;8.248;2023-04-03T13:39:34;8.50;99.90
16781;DHT22;8507;50.056;8.248;2023-04-03T13:42:14;8.90;99.90
16781;DHT22;8507;50.056;8.248;2023-04-03T13:44:40;8.90;99.90
16781;DHT22;8507;50.056;8.248;2023-04-03T13:47:22;8.70;99.90
16781;DHT22;8507;50.056;8.248;2023-04-03T13:50:01;8.80;99.90
16781;DHT22;8507;50.056;8.248;2023-04-03T13:52:30;8.70;99.90
16781;DHT22;8507;50.056;8.248;2023-04-03T13:55:02;8.60;99.90
16781;DHT22;8507;50.056;8.248;2023-04-03T13:57:28;8.70;99.90
16781;DHT22;8507;50.056;8.248;2023-04-03T13:59:54;8.80;99.90
16781;DHT22;8507;50.056;8.248;2023-04-03T14:02:32;8.90;99.90
16781;DHT22;8507;50.056;8.248;2023-04-03T14:05:00;8.70;99.90
16781;DHT22;8507;50.056;8.248;2023-04-03T14:07:29;8.50;99.90
16781;DHT22;8507;50.056;8.248;2023-04-03T14:09:55;8.50;99.90
16781;DHT22;8507;50.056;8.248;2023-04-03T14:12:34;8.40;99.90
16781;DHT22;8507;50.056;8.248;2023-04-03T14:15:03;8.50;99.90
16781;DHT22;8507;50.056;8.248;2023-04-03T14:17:28;9.00;99.90
16781;DHT22;8507;50.056;8.248;2023-04-03T14:19:55;8.90;99.90
16781;DHT22;8507;50.056;8.248;2023-04-03T14:22:27;8.70;99.90
16781;DHT22;8507;50.056;8.248;2023-04-03T14:24:54;8.80;99.90
16781;DHT22;8507;50.056;8.248;2023-04-03T14:27:27;8.60;99.90
16781;DHT22;8507;50.056;8.248;2023-04-03T14:29:55;8.70;99.90
16781;DHT22;8507;50.056;8.248;2023-04-03T14:32:22;8.80;99.90
16781;DHT22;8507;50.056;8.248;2023-04-03T14:34:49;8.40;99.90
16781;DHT22;8507;50.056;8.248;2023-04-03T14:37:19;8.40;99.90
16781;DHT22;8507;50.056;8.248;2023-04-03T14:39:45;8.70;99.90
16781;DHT22;8507;50.056;8.248;2023-04-03T14:42:22;8.60;99.90
16781;DHT22;8507;50.056;8.248;2023-04-03T14:44:48;8.30;99.90
16781;DHT22;8507;50.056;8.248;2023-04-03T14:47:18;8.50;99.90
16781;DHT22;8507;50.056;8.248;2023-04-03T14:49:45;8.30;99.90
16781;DHT22;8507;50.056;8.248;2023-04-03T14:52:21;8.10;99.90
16781;DHT22;8507;50.056;8.248;2023-04-03T14:54:48;8.30;99.90
16781;DHT22;8507;50.056;8.248;2023-04-03T14:57:15;8.40;99.90
16781;DHT22;8507;50.056;8.248;2023-04-03T14:59:42;8.50;99.90
16781;DHT22;8507;50.056;8.248;2023-04-03T15:02:29;8.50;99.90
16781;DHT22;8507;50.056;8.248;2023-04-03T15:04:56;8.40;99.90
16781;DHT22;8507;50.056;8.248;2023-04-03T15:07:23;8.30;99.90
16781;DHT22;8507;50.056;8.248;2023-04-03T15:09:49;8.40;99.90
16781;DHT22;8507;50.056;8.248;2023-04-03T15:12:15;8.10;99.90
16781;DHT22;8507;50.056;8.248;2023-04-03T15:14:41;8.20;99.90
16781;DHT22;8507;50.056;8.248;2023-04-03T15:17:15;8.20;99.90
16781;DHT22;8507;50.056;8.248;2023-04-03T15:19:40;8.20;99.90
16781;DHT22;8507;50.056;8.248;2023-04-03T15:22:06;8.30;99.90
16781;DHT22;8507;50.056;8.248;2023-04-03T15:24:32;8.20;99.90
16781;DHT22;8507;50.056;8.248;2023-04-03T15:26:58;8.20;99.90
16781;DHT22;8507;50.056;8.248;2023-04-03T15:29:23;8.10;99.90
16781;DHT22;8507;50.056;8.248;2023-04-03T15:31:49;8.20;99.90
16781;DHT22;8507;50.056;8.248;2023-04-03T15:34:18;8.00;99.90
16781;DHT22;8507;50.056;8.248;2023-04-03T15:36:43;8.10;99.90
16781;DHT22;8507;50.056;8.248;2023-04-03T15:39:09;8.00;99.90
16781;DHT22;8507;50.056;8.248;2023-04-03T15:41:34;8.10;99.90
16781;DHT22;8507;50.056;8.248;2023-04-03T15:44:00;7.80;99.90
16781;DHT22;8507;50.056;8.248;2023-04-03T15:46:25;7.90;99.90
16781;DHT22;8507;50.056;8.248;2023-04-03T15:48:51;8.00;99.90
16781;DHT22;8507;50.056;8.248;2023-04-03T15:51:16;8.00;99.90
16781;DHT22;8507;50.056;8.248;2023-04-03T15:53:42;7.90;99.90
16781;DHT22;8507;50.056;8.248;2023-04-03T15:56:08;7.80;99.90
16781;DHT22;8507;50.056;8.248;2023-04-03T15:58:35;7.80;99.90
16781;DHT22;8507;50.056;8.248;2023-04-03T16:01:01;7.90;99.90
16781;DHT22;8507;50.056;8.248;2023-04-03T16:03:27;7.90;99.90
16781;DHT22;8507;50.056;8.248;2023-04-03T16:05:53;7.80;99.90
16781;DHT22;8507;50.056;8.248;2023-04-03T16:08:19;7.70;99.90
16781;DHT22;8507;50.056;8.248;2023-04-03T16:10:46;7.60;99.90
16781;DHT22;8507;50.056;8.248;2023-04-03T16:13:12;7.60;99.90
16781;DHT22;8507;50.056;8.248;2023-04-03T16:15:38;7.70;99.90
16781;DHT22;8507;50.056;8.248;2023-04-03T16:18:04;7.70;99.90
16781;DHT22;8507;50.056;8.248;2023-04-03T16:20:30;7.60;99.90
16781;DHT22;8507;50.056;8.248;2023-04-03T16:22:58;7.60;99.90
16781;DHT22;8507;50.056;8.248;2023-04-03T16:25:25;7.70;99.90
16781;DHT22;8507;50.056;8.248;2023-04-03T16:27:50;7.70;99.90
16781;DHT22;8507;50.056;8.248;2023-04-03T16:30:16;7.90;99.90
16781;DHT22;8507;50.056;8.248;2023-04-03T16:32:42;7.90;99.90
16781;DHT22;8507;50.056;8.248;2023-04-03T16:35:09;7.90;99.90
16781;DHT22;8507;50.056;8.248;2023-04-03T16:37:36;7.70;99.90
16781;DHT22;8507;50.056;8.248;2023-04-03T16:40:03;7.60;99.90
16781;DHT22;8507;50.056;8.248;2023-04-03T16:42:30;7.60;99.90
16781;DHT22;8507;50.056;8.248;2023-04-03T16:44:56;7.60;99.90
16781;DHT22;8507;50.056;8.248;2023-04-03T16:47:21;7.60;99.90
16781;DHT22;8507;50.056;8.248;2023-04-03T16:49:47;7.60;99.90
16781;DHT22;8507;50.056;8.248;2023-04-03T16:52:13;7.60;99.90
16781;DHT22;8507;50.056;8.248;2023-04-03T16:54:39;7.60;99.90
16781;DHT22;8507;50.056;8.248;2023-04-03T16:57:04;7.60;99.90
16781;DHT22;8507;50.056;8.248;2023-04-03T16:59:30;7.70;99.90
16781;DHT22;8507;50.056;8.248;2023-04-03T17:01:55;7.60;99.90
16781;DHT22;8507;50.056;8.248;2023-04-03T17:04:21;7.40;99.90
16781;DHT22;8507;50.056;8.248;2023-04-03T17:06:47;7.30;99.90
16781;DHT22;8507;50.056;8.248;2023-04-03T17:09:12;7.40;99.90
16781;DHT22;8507;50.056;8.248;2023-04-03T17:11:38;7.40;99.90
16781;DHT22;8507;50.056;8.248;2023-04-03T17:14:04;7.40;99.90
16781;DHT22;8507;50.056;8.248;2023-04-03T17:16:33;7.30;99.90
16781;DHT22;8507;50.056;8.248;2023-04-03T17:18:59;7.40;99.90
16781;DHT22;8507;50.056;8.248;2023-04-03T17:21:25;7.30;99.90
16781;DHT22;8507;50.056;8.248;2023-04-03T17:23:58;7.30;99.90
16781;DHT22;8507;50.056;8.248;2023-04-03T17:26:25;7.20;99.90
16781;DHT22;8507;50.056;8.248;2023-04-03T17:28:52;7.00;99.90
16781;DHT22;8507;50.056;8.248;2023-04-03T17:31:18;6.90;99.90
16781;DHT22;8507;50.056;8.248;2023-04-03T17:33:44;6.80;99.90
16781;DHT22;8507;50.056;8.248;2023-04-03T17:36:10;6.70;99.90
16781;DHT22;8507;50.056;8.248;2023-04-03T17:38:36;6.50;99.90
16781;DHT22;8507;50.056;8.248;2023-04-03T17:41:04;6.40;99.90
16781;DHT22;8507;50.056;8.248;2023-04-03T17:43:31;6.30;99.90
16781;DHT22;8507;50.056;8.248;2023-04-03T17:46:01;6.20;99.90
16781;DHT22;8507;50.056;8.248;2023-04-03T17:48:30;6.20;99.90
16781;DHT22;8507;50.056;8.248;2023-04-03T17:50:56;6.10;99.90
16781;DHT22;8507;50.056;8.248;2023-04-03T17:53:22;6.00;99.90
16781;DHT22;8507;50.056;8.248;2023-04-03T17:55:48;6.00;99.90
16781;DHT22;8507;50.056;8.248;2023-04-03T17:58:13;5.90;99.90
16781;DHT22;8507;50.056;8.248;2023-04-03T18:00:39;5.90;99.90
16781;DHT22;8507;50.056;8.248;2023-04-03T18:03:05;5.80;99.90